createdAt,value
2023-01-17T00:04:15.266Z,53.10
2023-01-17T00:07:01.034Z,53.10
2023-01-17T00:09:46.808Z,58.10
2023-01-17T00:12:14.123Z,59.30
2023-01-17T00:14:40.976Z,47.70
2023-01-17T00:17:07.895Z,52.40
2023-01-17T00:19:53.703Z,56.50
2023-01-17T00:22:45.058Z,50.70
2023-01-17T00:25:31.715Z,56.90
2023-01-17T00:27:58.619Z,50.70
2023-01-17T00:30:25.650Z,50.30
2023-01-17T00:32:52.601Z,48.30
2023-01-17T00:35:20.424Z,50.00
2023-01-17T00:37:47.332Z,49.60
2023-01-17T00:40:14.221Z,52.80
2023-01-17T00:42:41.006Z,58.40
2023-01-17T00:45:27.268Z,53.30
2023-01-17T00:48:12.867Z,53.50
2023-01-17T00:50:58.629Z,52.90
2023-01-17T00:53:44.408Z,62.10
2023-01-17T00:56:29.991Z,62.80
2023-01-17T00:59:15.931Z,62.50
2023-01-17T01:02:01.877Z,59.00
2023-01-17T01:04:47.765Z,60.60
2023-01-17T04:19:25.749Z,69.70
2023-01-17T04:21:53.079Z,72.10
2023-01-17T04:24:19.930Z,80.90
2023-01-17T04:26:46.806Z,74.60
2023-01-17T04:29:13.818Z,72.50
2023-01-17T04:31:40.858Z,70.30
2023-01-17T04:34:07.886Z,74.20
2023-01-17T04:36:34.847Z,73.50
2023-01-17T04:39:01.715Z,80.90
2023-01-17T04:41:28.698Z,64.00
2023-01-17T04:43:55.576Z,66.30
2023-01-17T04:46:22.541Z,69.50
2023-01-17T04:48:49.437Z,71.60
2023-01-17T04:51:16.348Z,74.60
2023-01-17T04:53:43.310Z,76.80
2023-01-17T04:56:10.199Z,75.60
2023-01-17T04:58:37.134Z,67.40
2023-01-17T05:01:04.968Z,80.40
2023-01-17T05:03:32.586Z,79.10
2023-01-17T05:06:00.415Z,69.30
2023-01-17T05:08:27.464Z,88.00
2023-01-17T05:10:54.423Z,99.10
2023-01-17T05:13:21.287Z,78.30
2023-01-17T05:15:50.541Z,63.70
2023-01-17T05:18:17.958Z,69.40
2023-01-17T05:20:45.076Z,76.40
2023-01-17T05:23:12.026Z,76.40
2023-01-17T05:25:44.494Z,74.50
2023-01-17T05:28:14.671Z,62.20
2023-01-17T05:30:41.704Z,52.30
2023-01-17T05:33:10.382Z,46.20
2023-01-17T05:35:37.490Z,48.70
2023-01-17T05:38:06.812Z,45.70
2023-01-17T05:40:34.061Z,59.20
2023-01-17T05:43:01.285Z,44.50
2023-01-17T05:45:29.345Z,49.00
2023-01-17T05:47:56.515Z,45.20
2023-01-17T05:50:31.155Z,48.00
2023-01-17T05:53:02.613Z,53.90
2023-01-17T05:55:29.751Z,55.50
2023-01-17T05:57:56.776Z,51.00
2023-01-17T06:00:23.980Z,53.30
2023-01-17T06:02:53.512Z,44.30
2023-01-17T06:05:21.398Z,41.30
2023-01-17T06:07:48.460Z,45.10
2023-01-17T06:10:15.939Z,48.90
2023-01-17T06:12:44.067Z,51.10
2023-01-17T06:15:11.638Z,44.20
2023-01-17T06:17:38.481Z,44.50
2023-01-17T06:20:06.018Z,44.50
2023-01-17T06:22:33.110Z,42.70
2023-01-17T06:25:00.012Z,47.50
2023-01-17T06:27:27.016Z,56.50
2023-01-17T06:29:54.094Z,44.50
2023-01-17T06:32:21.257Z,42.30
2023-01-17T06:34:48.112Z,57.10
2023-01-17T06:37:15.019Z,74.60
2023-01-17T06:39:41.916Z,63.20
2023-01-17T06:42:09.086Z,55.00
2023-01-17T06:44:36.103Z,44.10
2023-01-17T06:47:06.180Z,40.40
2023-01-17T06:49:33.039Z,48.10
2023-01-17T06:52:01.274Z,47.10
2023-01-17T06:54:33.197Z,42.40
2023-01-17T06:57:02.970Z,41.50
2023-01-17T06:59:29.889Z,41.40
2023-01-17T07:01:56.822Z,55.80
2023-01-17T07:04:23.723Z,55.00
2023-01-17T07:06:51.688Z,58.60
2023-01-17T07:09:18.615Z,59.60
2023-01-17T07:14:37.709Z,56.20
2023-01-17T07:17:05.003Z,68.90
2023-01-17T07:19:32.181Z,67.50
2023-01-17T07:21:59.134Z,58.40
2023-01-17T07:24:29.106Z,66.40
2023-01-17T10:40:22.289Z,69.70
2023-01-17T10:45:29.321Z,83.70
2023-01-17T10:48:09.187Z,101.10
2023-01-17T10:50:47.737Z,74.60
2023-01-17T10:53:24.367Z,67.70
2023-01-17T10:55:53.497Z,67.40
2023-01-17T10:58:20.366Z,82.00
2023-01-17T11:00:51.932Z,84.60
2023-01-17T11:03:21.038Z,82.00
2023-01-17T11:06:17.489Z,81.00
2023-01-17T11:08:54.743Z,81.00
2023-01-17T11:11:26.037Z,72.30
2023-01-17T11:13:53.729Z,78.70
2023-01-17T11:16:23.325Z,89.00
2023-01-17T11:19:08.638Z,86.60
2023-01-17T11:21:41.279Z,69.50
2023-01-17T11:24:10.424Z,85.60
2023-01-17T11:26:37.527Z,95.30
2023-01-17T11:29:13.824Z,82.70
2023-01-17T11:31:45.784Z,68.90
2023-01-17T11:34:26.308Z,61.00
2023-01-17T11:37:22.874Z,55.70
2023-01-17T11:39:49.907Z,65.90
2023-01-17T11:42:34.599Z,71.70
2023-01-17T11:45:25.492Z,56.90
2023-01-17T11:48:07.780Z,52.80
2023-01-17T11:50:44.903Z,56.70
2023-01-17T11:53:25.377Z,61.50
2023-01-17T11:55:53.815Z,51.20
2023-01-17T11:58:21.083Z,52.40
2023-01-17T12:00:50.564Z,51.00
2023-01-17T12:03:40.904Z,51.20
2023-01-17T12:06:26.170Z,43.50
2023-01-17T12:09:17.527Z,50.10
2023-01-17T12:12:07.079Z,47.80
2023-01-17T12:14:54.955Z,48.50
2023-01-17T12:17:54.480Z,48.80
2023-01-17T12:20:46.812Z,54.90
2023-01-17T16:36:20.169Z,39.10
2023-01-17T16:38:49.879Z,39.20
2023-01-17T16:41:16.785Z,35.70
2023-01-17T16:43:45.386Z,38.20
2023-01-17T16:46:15.260Z,38.00
2023-01-17T16:48:49.993Z,48.70
2023-01-17T16:51:17.460Z,271.70
2023-01-17T16:54:03.166Z,220.30
2023-01-17T16:56:30.389Z,114.20
2023-01-17T16:58:57.997Z,151.50
2023-01-17T17:01:26.058Z,152.50
2023-01-17T17:03:53.782Z,155.00
2023-01-17T17:06:22.612Z,135.00
2023-01-17T17:09:09.434Z,101.10
2023-01-17T17:11:36.812Z,106.10
2023-01-17T17:14:04.022Z,77.90
2023-01-17T17:16:34.184Z,69.50
2023-01-17T17:19:10.718Z,72.00
2023-01-17T17:21:37.650Z,74.00
2023-01-17T17:24:06.398Z,76.80
2023-01-17T17:26:35.955Z,90.80
2023-01-17T17:29:07.784Z,81.00
2023-01-17T17:31:35.227Z,105.30
2023-01-17T17:34:03.045Z,100.50
2023-01-17T17:36:38.598Z,96.60
2023-01-17T17:39:09.530Z,97.20
2023-01-17T17:41:41.856Z,81.00
2023-01-17T17:44:10.469Z,79.30
2023-01-17T17:46:37.807Z,81.70
2023-01-17T17:49:07.763Z,91.40
2023-01-17T17:51:35.567Z,97.80
2023-01-17T17:54:08.891Z,85.20
2023-01-17T17:56:36.715Z,81.20
2023-01-17T18:05:16.647Z,68.30
2023-01-17T18:07:43.714Z,70.80
2023-01-17T18:10:11.135Z,73.60
2023-01-17T18:12:41.573Z,63.40
2023-01-17T18:15:09.540Z,57.70
2023-01-17T18:17:39.733Z,57.00
2023-01-17T18:20:07.855Z,61.60
2023-01-17T18:22:35.340Z,76.70
2023-01-17T18:25:04.855Z,70.90
2023-01-17T18:27:35.592Z,60.10
2023-01-17T18:30:07.413Z,48.00
2023-01-17T18:32:37.056Z,43.20
2023-01-17T18:35:36.775Z,48.80
2023-01-17T18:38:08.391Z,63.80
2023-01-17T18:40:44.520Z,51.80
2023-01-17T18:43:18.322Z,46.80
2023-01-17T18:45:52.868Z,45.90
2023-01-17T18:48:19.885Z,42.40
2023-01-17T18:50:55.577Z,42.90
2023-01-17T18:53:22.461Z,45.30
2023-01-17T18:55:57.641Z,45.30
2023-01-17T18:58:26.036Z,45.30
2023-01-17T19:00:53.420Z,48.50
2023-01-17T22:41:16.754Z,16.90
2023-01-17T22:43:46.835Z,13.50
2023-01-17T22:46:18.890Z,13.60
2023-01-17T22:48:46.028Z,18.00
2023-01-17T22:51:15.092Z,22.10
2023-01-17T22:53:53.518Z,23.90
2023-01-17T22:56:22.634Z,22.00
2023-01-17T22:58:50.248Z,20.90
2023-01-17T23:01:19.640Z,18.90
2023-01-17T23:03:47.090Z,16.80
2023-01-17T23:06:15.039Z,14.80
2023-01-17T23:08:46.112Z,15.60
2023-01-17T23:17:36.326Z,13.70
2023-01-17T23:20:03.879Z,13.80
2023-01-17T23:22:31.076Z,15.10
2023-01-17T23:24:59.738Z,17.50
2023-01-17T23:27:51.476Z,20.10
2023-01-17T23:30:29.366Z,23.20
2023-01-17T23:32:58.947Z,18.60
2023-01-17T23:35:28.230Z,20.40
2023-01-17T23:38:18.655Z,18.30
2023-01-17T23:41:07.811Z,19.50
2023-01-17T23:43:35.177Z,14.80
2023-01-17T23:46:05.489Z,18.90
2023-01-17T23:48:33.989Z,15.90
2023-01-17T23:51:07.317Z,14.70
2023-01-17T23:53:34.953Z,14.50
2023-01-17T23:56:07.564Z,11.80
2023-01-17T23:58:37.690Z,13.00
